sensor_id;sensor_type;location;lat;lon;timestamp;P1;durP1;ratioP1;P2;durP2;ratioP2
24663;SDS011;12791;50.992;13.788;2024-01-30T00:00:17;40.95;;;25.45;;
24663;SDS011;12791;50.992;13.788;2024-01-30T00:02:44;41.00;;;24.80;;
24663;SDS011;12791;50.992;13.788;2024-01-30T00:05:12;40.88;;;25.05;;
24663;SDS011;12791;50.992;13.788;2024-01-30T00:07:39;40.33;;;26.00;;
24663;SDS011;12791;50.992;13.788;2024-01-30T00:10:06;44.33;;;25.75;;
24663;SDS011;12791;50.992;13.788;2024-01-30T00:12:33;39.03;;;24.75;;
24663;SDS011;12791;50.992;13.788;2024-01-30T00:14:59;41.25;;;25.33;;
24663;SDS011;12791;50.992;13.788;2024-01-30T00:17:26;42.05;;;25.77;;
24663;SDS011;12791;50.992;13.788;2024-01-30T00:19:52;38.63;;;24.00;;
24663;SDS011;12791;50.992;13.788;2024-01-30T00:22:20;41.90;;;25.75;;
24663;SDS011;12791;50.992;13.788;2024-01-30T00:24:47;46.78;;;26.50;;
24663;SDS011;12791;50.992;13.788;2024-01-30T00:27:13;40.47;;;25.05;;
24663;SDS011;12791;50.992;13.788;2024-01-30T00:29:41;41.38;;;25.33;;
24663;SDS011;12791;50.992;13.788;2024-01-30T00:32:07;41.67;;;25.83;;
24663;SDS011;12791;50.992;13.788;2024-01-30T00:34:34;40.58;;;25.52;;
24663;SDS011;12791;50.992;13.788;2024-01-30T00:37:00;44.72;;;26.55;;
24663;SDS011;12791;50.992;13.788;2024-01-30T00:39:28;43.88;;;27.08;;
24663;SDS011;12791;50.992;13.788;2024-01-30T00:41:55;36.35;;;25.25;;
24663;SDS011;12791;50.992;13.788;2024-01-30T00:44:21;42.78;;;26.17;;
24663;SDS011;12791;50.992;13.788;2024-01-30T00:46:48;46.22;;;26.98;;
24663;SDS011;12791;50.992;13.788;2024-01-30T00:49:15;36.97;;;24.20;;
24663;SDS011;12791;50.992;13.788;2024-01-30T00:51:41;39.08;;;24.27;;
24663;SDS011;12791;50.992;13.788;2024-01-30T00:54:08;38.95;;;24.55;;
24663;SDS011;12791;50.992;13.788;2024-01-30T00:56:36;42.45;;;26.20;;
24663;SDS011;12791;50.992;13.788;2024-01-30T00:59:02;37.15;;;24.48;;
24663;SDS011;12791;50.992;13.788;2024-01-30T01:01:29;41.15;;;25.40;;
24663;SDS011;12791;50.992;13.788;2024-01-30T01:03:55;40.22;;;24.05;;
24663;SDS011;12791;50.992;13.788;2024-01-30T01:06:23;39.22;;;24.17;;
24663;SDS011;12791;50.992;13.788;2024-01-30T01:08:49;41.95;;;25.17;;
24663;SDS011;12791;50.992;13.788;2024-01-30T01:11:16;36.08;;;24.20;;
24663;SDS011;12791;50.992;13.788;2024-01-30T01:13:44;36.88;;;23.45;;
24663;SDS011;12791;50.992;13.788;2024-01-30T01:16:10;35.47;;;23.10;;
24663;SDS011;12791;50.992;13.788;2024-01-30T01:18:37;38.97;;;23.92;;
24663;SDS011;12791;50.992;13.788;2024-01-30T01:21:04;35.78;;;22.73;;
24663;SDS011;12791;50.992;13.788;2024-01-30T01:23:30;39.20;;;23.50;;
24663;SDS011;12791;50.992;13.788;2024-01-30T01:25:57;36.05;;;23.58;;
24663;SDS011;12791;50.992;13.788;2024-01-30T01:28:24;34.20;;;22.20;;
24663;SDS011;12791;50.992;13.788;2024-01-30T01:30:53;40.30;;;23.58;;
24663;SDS011;12791;50.992;13.788;2024-01-30T01:33:23;31.08;;;21.13;;
24663;SDS011;12791;50.992;13.788;2024-01-30T01:35:50;33.28;;;21.95;;
24663;SDS011;12791;50.992;13.788;2024-01-30T01:38:17;36.92;;;22.73;;
24663;SDS011;12791;50.992;13.788;2024-01-30T01:40:43;35.88;;;22.92;;
24663;SDS011;12791;50.992;13.788;2024-01-30T01:43:10;35.30;;;22.65;;
24663;SDS011;12791;50.992;13.788;2024-01-30T01:45:37;30.88;;;21.17;;
24663;SDS011;12791;50.992;13.788;2024-01-30T01:48:05;36.58;;;22.90;;
24663;SDS011;12791;50.992;13.788;2024-01-30T01:50:33;33.92;;;22.63;;
24663;SDS011;12791;50.992;13.788;2024-01-30T01:52:59;31.60;;;22.00;;
24663;SDS011;12791;50.992;13.788;2024-01-30T01:55:27;32.40;;;20.52;;
24663;SDS011;12791;50.992;13.788;2024-01-30T01:57:57;32.47;;;21.80;;
24663;SDS011;12791;50.992;13.788;2024-01-30T02:00:24;33.75;;;21.83;;
24663;SDS011;12791;50.992;13.788;2024-01-30T02:02:50;32.50;;;20.70;;
24663;SDS011;12791;50.992;13.788;2024-01-30T02:05:20;32.83;;;20.13;;
24663;SDS011;12791;50.992;13.788;2024-01-30T02:07:47;32.45;;;21.90;;
24663;SDS011;12791;50.992;13.788;2024-01-30T02:10:14;30.83;;;19.95;;
24663;SDS011;12791;50.992;13.788;2024-01-30T02:12:40;32.42;;;19.40;;
24663;SDS011;12791;50.992;13.788;2024-01-30T02:15:07;32.25;;;20.13;;
24663;SDS011;12791;50.992;13.788;2024-01-30T02:17:33;31.52;;;21.08;;
24663;SDS011;12791;50.992;13.788;2024-01-30T02:20:00;30.27;;;19.70;;
24663;SDS011;12791;50.992;13.788;2024-01-30T02:22:29;32.17;;;20.15;;
24663;SDS011;12791;50.992;13.788;2024-01-30T02:24:57;35.67;;;20.45;;
24663;SDS011;12791;50.992;13.788;2024-01-30T02:27:24;33.22;;;20.67;;
24663;SDS011;12791;50.992;13.788;2024-01-30T02:29:50;30.38;;;20.90;;
24663;SDS011;12791;50.992;13.788;2024-01-30T02:32:17;34.75;;;20.60;;
24663;SDS011;12791;50.992;13.788;2024-01-30T02:34:43;32.35;;;20.95;;
24663;SDS011;12791;50.992;13.788;2024-01-30T02:37:10;32.03;;;21.08;;
24663;SDS011;12791;50.992;13.788;2024-01-30T02:39:38;32.28;;;22.17;;
24663;SDS011;12791;50.992;13.788;2024-01-30T02:42:05;33.13;;;21.38;;
24663;SDS011;12791;50.992;13.788;2024-01-30T02:44:31;29.15;;;20.30;;
24663;SDS011;12791;50.992;13.788;2024-01-30T02:46:59;34.72;;;22.00;;
24663;SDS011;12791;50.992;13.788;2024-01-30T02:49:25;35.13;;;21.25;;
24663;SDS011;12791;50.992;13.788;2024-01-30T02:51:53;33.65;;;21.17;;
24663;SDS011;12791;50.992;13.788;2024-01-30T02:54:20;33.58;;;21.60;;
24663;SDS011;12791;50.992;13.788;2024-01-30T02:56:47;32.20;;;21.00;;
24663;SDS011;12791;50.992;13.788;2024-01-30T02:59:14;30.40;;;19.92;;
24663;SDS011;12791;50.992;13.788;2024-01-30T03:01:44;32.00;;;21.75;;
24663;SDS011;12791;50.992;13.788;2024-01-30T03:04:11;34.47;;;22.17;;
24663;SDS011;12791;50.992;13.788;2024-01-30T03:06:38;35.58;;;21.52;;
24663;SDS011;12791;50.992;13.788;2024-01-30T03:09:05;34.63;;;21.67;;
24663;SDS011;12791;50.992;13.788;2024-01-30T03:11:31;34.50;;;22.60;;
24663;SDS011;12791;50.992;13.788;2024-01-30T03:13:59;33.47;;;21.40;;
24663;SDS011;12791;50.992;13.788;2024-01-30T03:16:26;36.53;;;22.73;;
24663;SDS011;12791;50.992;13.788;2024-01-30T03:18:52;35.00;;;22.85;;
24663;SDS011;12791;50.992;13.788;2024-01-30T03:21:19;40.63;;;23.70;;
24663;SDS011;12791;50.992;13.788;2024-01-30T03:23:46;36.47;;;22.60;;
24663;SDS011;12791;50.992;13.788;2024-01-30T03:26:13;35.35;;;22.27;;
24663;SDS011;12791;50.992;13.788;2024-01-30T03:28:40;36.10;;;21.95;;
24663;SDS011;12791;50.992;13.788;2024-01-30T03:31:08;33.70;;;22.10;;
24663;SDS011;12791;50.992;13.788;2024-01-30T03:33:36;32.47;;;21.35;;
24663;SDS011;12791;50.992;13.788;2024-01-30T03:36:04;39.20;;;22.77;;
24663;SDS011;12791;50.992;13.788;2024-01-30T03:38:31;37.92;;;21.33;;
24663;SDS011;12791;50.992;13.788;2024-01-30T03:40:58;33.10;;;21.77;;
24663;SDS011;12791;50.992;13.788;2024-01-30T03:43:25;37.58;;;22.25;;
24663;SDS011;12791;50.992;13.788;2024-01-30T03:45:52;34.78;;;21.77;;
24663;SDS011;12791;50.992;13.788;2024-01-30T03:48:20;31.55;;;21.52;;
24663;SDS011;12791;50.992;13.788;2024-01-30T03:50:47;33.75;;;22.08;;
24663;SDS011;12791;50.992;13.788;2024-01-30T03:53:14;36.28;;;22.48;;
24663;SDS011;12791;50.992;13.788;2024-01-30T03:55:40;36.13;;;21.83;;
24663;SDS011;12791;50.992;13.788;2024-01-30T03:58:07;35.13;;;21.90;;
24663;SDS011;12791;50.992;13.788;2024-01-30T04:00:34;35.78;;;22.63;;
24663;SDS011;12791;50.992;13.788;2024-01-30T04:03:00;35.67;;;21.85;;
24663;SDS011;12791;50.992;13.788;2024-01-30T04:05:28;34.92;;;22.00;;
24663;SDS011;12791;50.992;13.788;2024-01-30T04:07:55;34.92;;;21.73;;
24663;SDS011;12791;50.992;13.788;2024-01-30T04:10:22;33.33;;;21.42;;
24663;SDS011;12791;50.992;13.788;2024-01-30T04:12:49;36.10;;;22.35;;
24663;SDS011;12791;50.992;13.788;2024-01-30T04:15:16;34.38;;;21.77;;
24663;SDS011;12791;50.992;13.788;2024-01-30T04:17:43;34.60;;;21.10;;
24663;SDS011;12791;50.992;13.788;2024-01-30T04:20:13;34.67;;;21.55;;
24663;SDS011;12791;50.992;13.788;2024-01-30T04:22:41;37.38;;;21.45;;
24663;SDS011;12791;50.992;13.788;2024-01-30T04:25:08;33.20;;;21.98;;
24663;SDS011;12791;50.992;13.788;2024-01-30T04:27:35;31.77;;;20.85;;
24663;SDS011;12791;50.992;13.788;2024-01-30T04:30:02;31.98;;;20.77;;
24663;SDS011;12791;50.992;13.788;2024-01-30T04:32:29;35.50;;;21.83;;
24663;SDS011;12791;50.992;13.788;2024-01-30T04:34:55;34.63;;;20.65;;
24663;SDS011;12791;50.992;13.788;2024-01-30T04:37:22;36.15;;;22.10;;
24663;SDS011;12791;50.992;13.788;2024-01-30T04:39:51;35.20;;;21.83;;
24663;SDS011;12791;50.992;13.788;2024-01-30T04:42:17;38.38;;;22.90;;
24663;SDS011;12791;50.992;13.788;2024-01-30T04:44:44;35.63;;;21.88;;
24663;SDS011;12791;50.992;13.788;2024-01-30T04:47:10;34.67;;;22.08;;
24663;SDS011;12791;50.992;13.788;2024-01-30T04:49:37;37.88;;;22.27;;
24663;SDS011;12791;50.992;13.788;2024-01-30T04:52:04;33.67;;;21.90;;
24663;SDS011;12791;50.992;13.788;2024-01-30T04:54:31;37.45;;;22.33;;
24663;SDS011;12791;50.992;13.788;2024-01-30T04:56:59;33.83;;;20.60;;
24663;SDS011;12791;50.992;13.788;2024-01-30T04:59:25;35.13;;;21.85;;
24663;SDS011;12791;50.992;13.788;2024-01-30T05:01:52;38.80;;;22.77;;
24663;SDS011;12791;50.992;13.788;2024-01-30T05:04:19;38.92;;;22.83;;
24663;SDS011;12791;50.992;13.788;2024-01-30T05:06:47;38.78;;;22.98;;
24663;SDS011;12791;50.992;13.788;2024-01-30T05:09:13;34.92;;;22.73;;
24663;SDS011;12791;50.992;13.788;2024-01-30T05:11:40;33.58;;;22.10;;
24663;SDS011;12791;50.992;13.788;2024-01-30T05:14:08;38.28;;;21.27;;
24663;SDS011;12791;50.992;13.788;2024-01-30T05:16:36;32.50;;;22.55;;
24663;SDS011;12791;50.992;13.788;2024-01-30T05:19:02;35.67;;;21.27;;
24663;SDS011;12791;50.992;13.788;2024-01-30T05:21:30;38.85;;;23.80;;
24663;SDS011;12791;50.992;13.788;2024-01-30T05:23:56;37.40;;;23.00;;
24663;SDS011;12791;50.992;13.788;2024-01-30T05:26:23;38.00;;;22.25;;
24663;SDS011;12791;50.992;13.788;2024-01-30T05:28:49;39.22;;;22.30;;
24663;SDS011;12791;50.992;13.788;2024-01-30T05:31:17;35.13;;;22.80;;
24663;SDS011;12791;50.992;13.788;2024-01-30T05:33:44;36.30;;;23.25;;
24663;SDS011;12791;50.992;13.788;2024-01-30T05:36:11;35.85;;;22.55;;
24663;SDS011;12791;50.992;13.788;2024-01-30T05:38:38;39.63;;;23.20;;
24663;SDS011;12791;50.992;13.788;2024-01-30T05:41:05;42.55;;;23.48;;
24663;SDS011;12791;50.992;13.788;2024-01-30T05:43:32;36.20;;;22.60;;
24663;SDS011;12791;50.992;13.788;2024-01-30T05:45:58;37.38;;;22.73;;
24663;SDS011;12791;50.992;13.788;2024-01-30T05:48:27;41.15;;;24.60;;
24663;SDS011;12791;50.992;13.788;2024-01-30T05:50:53;35.58;;;22.77;;
24663;SDS011;12791;50.992;13.788;2024-01-30T05:53:20;39.25;;;24.02;;
24663;SDS011;12791;50.992;13.788;2024-01-30T05:55:47;41.33;;;24.33;;
24663;SDS011;12791;50.992;13.788;2024-01-30T05:58:13;37.65;;;23.10;;
24663;SDS011;12791;50.992;13.788;2024-01-30T06:00:40;41.92;;;24.25;;
24663;SDS011;12791;50.992;13.788;2024-01-30T06:03:07;39.53;;;24.27;;
24663;SDS011;12791;50.992;13.788;2024-01-30T06:05:35;37.13;;;24.10;;
24663;SDS011;12791;50.992;13.788;2024-01-30T06:08:01;37.97;;;23.83;;
24663;SDS011;12791;50.992;13.788;2024-01-30T06:10:28;37.13;;;24.13;;
24663;SDS011;12791;50.992;13.788;2024-01-30T06:12:55;34.67;;;22.02;;
24663;SDS011;12791;50.992;13.788;2024-01-30T06:15:21;33.70;;;21.63;;
24663;SDS011;12791;50.992;13.788;2024-01-30T06:17:48;37.30;;;21.15;;
24663;SDS011;12791;50.992;13.788;2024-01-30T06:20:14;33.78;;;21.10;;
24663;SDS011;12791;50.992;13.788;2024-01-30T06:22:43;35.70;;;22.25;;
24663;SDS011;12791;50.992;13.788;2024-01-30T06:25:09;34.53;;;21.50;;
24663;SDS011;12791;50.992;13.788;2024-01-30T06:27:37;31.08;;;20.35;;
24663;SDS011;12791;50.992;13.788;2024-01-30T06:30:04;32.53;;;21.23;;
24663;SDS011;12791;50.992;13.788;2024-01-30T06:32:31;33.75;;;22.42;;
24663;SDS011;12791;50.992;13.788;2024-01-30T06:34:59;33.00;;;20.40;;
24663;SDS011;12791;50.992;13.788;2024-01-30T06:37:26;34.05;;;21.30;;
24663;SDS011;12791;50.992;13.788;2024-01-30T06:39:53;31.77;;;20.75;;
24663;SDS011;12791;50.992;13.788;2024-01-30T06:42:20;31.60;;;20.60;;
24663;SDS011;12791;50.992;13.788;2024-01-30T06:44:46;32.05;;;19.98;;
24663;SDS011;12791;50.992;13.788;2024-01-30T06:47:13;31.83;;;19.70;;
24663;SDS011;12791;50.992;13.788;2024-01-30T06:49:40;32.60;;;19.65;;
24663;SDS011;12791;50.992;13.788;2024-01-30T06:52:07;30.98;;;20.27;;
24663;SDS011;12791;50.992;13.788;2024-01-30T06:54:34;30.88;;;19.88;;
24663;SDS011;12791;50.992;13.788;2024-01-30T06:57:02;33.22;;;20.70;;
24663;SDS011;12791;50.992;13.788;2024-01-30T06:59:28;29.92;;;19.17;;
24663;SDS011;12791;50.992;13.788;2024-01-30T07:01:55;35.28;;;19.50;;
24663;SDS011;12791;50.992;13.788;2024-01-30T07:04:22;30.83;;;18.63;;
24663;SDS011;12791;50.992;13.788;2024-01-30T07:06:48;30.10;;;19.17;;
24663;SDS011;12791;50.992;13.788;2024-01-30T07:09:15;30.50;;;19.27;;
24663;SDS011;12791;50.992;13.788;2024-01-30T07:11:42;31.10;;;18.77;;
24663;SDS011;12791;50.992;13.788;2024-01-30T07:14:10;29.83;;;19.65;;
24663;SDS011;12791;50.992;13.788;2024-01-30T07:16:36;35.72;;;21.35;;
24663;SDS011;12791;50.992;13.788;2024-01-30T07:19:03;29.75;;;18.77;;
24663;SDS011;12791;50.992;13.788;2024-01-30T07:21:29;27.60;;;18.83;;
24663;SDS011;12791;50.992;13.788;2024-01-30T07:23:56;29.67;;;18.42;;
24663;SDS011;12791;50.992;13.788;2024-01-30T07:26:23;36.63;;;21.10;;
24663;SDS011;12791;50.992;13.788;2024-01-30T07:28:49;33.28;;;18.65;;
24663;SDS011;12791;50.992;13.788;2024-01-30T07:31:17;31.67;;;20.10;;
24663;SDS011;12791;50.992;13.788;2024-01-30T07:33:45;29.25;;;18.80;;
24663;SDS011;12791;50.992;13.788;2024-01-30T07:36:12;27.77;;;18.98;;
24663;SDS011;12791;50.992;13.788;2024-01-30T07:38:38;29.65;;;19.05;;
24663;SDS011;12791;50.992;13.788;2024-01-30T07:41:05;32.30;;;20.55;;
24663;SDS011;12791;50.992;13.788;2024-01-30T07:43:33;27.42;;;18.45;;
24663;SDS011;12791;50.992;13.788;2024-01-30T07:45:59;29.35;;;18.75;;
24663;SDS011;12791;50.992;13.788;2024-01-30T07:48:29;30.00;;;20.60;;
24663;SDS011;12791;50.992;13.788;2024-01-30T07:50:56;27.67;;;19.55;;
24663;SDS011;12791;50.992;13.788;2024-01-30T07:53:22;32.08;;;20.38;;
24663;SDS011;12791;50.992;13.788;2024-01-30T07:55:49;30.25;;;18.58;;
24663;SDS011;12791;50.992;13.788;2024-01-30T07:58:16;29.50;;;19.08;;
24663;SDS011;12791;50.992;13.788;2024-01-30T08:00:42;30.88;;;20.27;;
24663;SDS011;12791;50.992;13.788;2024-01-30T08:03:09;32.15;;;21.08;;
24663;SDS011;12791;50.992;13.788;2024-01-30T08:05:37;32.53;;;19.38;;
24663;SDS011;12791;50.992;13.788;2024-01-30T08:08:04;26.80;;;17.92;;
24663;SDS011;12791;50.992;13.788;2024-01-30T08:10:31;30.50;;;18.75;;
24663;SDS011;12791;50.992;13.788;2024-01-30T08:12:58;31.77;;;20.30;;
24663;SDS011;12791;50.992;13.788;2024-01-30T08:15:25;30.27;;;18.60;;
24663;SDS011;12791;50.992;13.788;2024-01-30T08:17:51;33.50;;;19.92;;
24663;SDS011;12791;50.992;13.788;2024-01-30T08:20:22;29.15;;;19.08;;
24663;SDS011;12791;50.992;13.788;2024-01-30T08:22:50;25.88;;;18.63;;
24663;SDS011;12791;50.992;13.788;2024-01-30T08:25:17;28.77;;;19.05;;
24663;SDS011;12791;50.992;13.788;2024-01-30T08:27:44;27.50;;;18.83;;
24663;SDS011;12791;50.992;13.788;2024-01-30T08:30:11;29.33;;;18.05;;
24663;SDS011;12791;50.992;13.788;2024-01-30T08:32:38;26.20;;;17.75;;
24663;SDS011;12791;50.992;13.788;2024-01-30T08:35:04;24.67;;;17.42;;
24663;SDS011;12791;50.992;13.788;2024-01-30T08:37:31;25.85;;;17.58;;
24663;SDS011;12791;50.992;13.788;2024-01-30T08:39:59;28.40;;;17.23;;
24663;SDS011;12791;50.992;13.788;2024-01-30T08:42:27;24.02;;;17.52;;
24663;SDS011;12791;50.992;13.788;2024-01-30T08:44:54;25.77;;;18.02;;
24663;SDS011;12791;50.992;13.788;2024-01-30T08:47:21;28.90;;;18.40;;
24663;SDS011;12791;50.992;13.788;2024-01-30T08:49:47;25.23;;;16.83;;
24663;SDS011;12791;50.992;13.788;2024-01-30T08:52:14;23.65;;;16.80;;
24663;SDS011;12791;50.992;13.788;2024-01-30T08:54:41;25.80;;;16.40;;
24663;SDS011;12791;50.992;13.788;2024-01-30T08:57:08;22.50;;;15.82;;
24663;SDS011;12791;50.992;13.788;2024-01-30T08:59:35;26.88;;;17.20;;
24663;SDS011;12791;50.992;13.788;2024-01-30T09:02:02;28.67;;;16.45;;
24663;SDS011;12791;50.992;13.788;2024-01-30T09:04:29;23.13;;;15.95;;
24663;SDS011;12791;50.992;13.788;2024-01-30T09:06:55;22.65;;;16.00;;
24663;SDS011;12791;50.992;13.788;2024-01-30T09:09:22;25.38;;;15.82;;
24663;SDS011;12791;50.992;13.788;2024-01-30T09:11:49;23.08;;;15.75;;
24663;SDS011;12791;50.992;13.788;2024-01-30T09:14:16;22.00;;;15.93;;
24663;SDS011;12791;50.992;13.788;2024-01-30T09:16:43;24.75;;;15.15;;
24663;SDS011;12791;50.992;13.788;2024-01-30T09:19:10;22.58;;;15.68;;
24663;SDS011;12791;50.992;13.788;2024-01-30T09:21:36;25.88;;;16.10;;
24663;SDS011;12791;50.992;13.788;2024-01-30T09:24:03;20.90;;;15.45;;
24663;SDS011;12791;50.992;13.788;2024-01-30T09:26:31;20.73;;;14.68;;
24663;SDS011;12791;50.992;13.788;2024-01-30T09:28:57;20.95;;;15.15;;
24663;SDS011;12791;50.992;13.788;2024-01-30T09:31:25;22.15;;;15.60;;
24663;SDS011;12791;50.992;13.788;2024-01-30T09:33:52;24.02;;;14.68;;
24663;SDS011;12791;50.992;13.788;2024-01-30T09:36:19;22.02;;;15.57;;
24663;SDS011;12791;50.992;13.788;2024-01-30T09:38:45;25.35;;;15.77;;
24663;SDS011;12791;50.992;13.788;2024-01-30T09:41:12;22.25;;;15.18;;
24663;SDS011;12791;50.992;13.788;2024-01-30T09:43:39;21.88;;;15.07;;
24663;SDS011;12791;50.992;13.788;2024-01-30T09:46:06;24.88;;;14.63;;
24663;SDS011;12791;50.992;13.788;2024-01-30T09:48:39;23.95;;;15.88;;
24663;SDS011;12791;50.992;13.788;2024-01-30T09:51:07;23.70;;;17.10;;
24663;SDS011;12791;50.992;13.788;2024-01-30T09:53:34;24.05;;;16.83;;
24663;SDS011;12791;50.992;13.788;2024-01-30T09:56:02;25.88;;;16.33;;
24663;SDS011;12791;50.992;13.788;2024-01-30T09:58:29;21.77;;;15.20;;
24663;SDS011;12791;50.992;13.788;2024-01-30T10:00:55;23.55;;;16.42;;
24663;SDS011;12791;50.992;13.788;2024-01-30T10:03:22;21.95;;;15.70;;
24663;SDS011;12791;50.992;13.788;2024-01-30T10:05:50;24.08;;;16.88;;
24663;SDS011;12791;50.992;13.788;2024-01-30T10:08:18;21.80;;;15.43;;
24663;SDS011;12791;50.992;13.788;2024-01-30T10:10:45;25.25;;;16.67;;
24663;SDS011;12791;50.992;13.788;2024-01-30T10:13:12;30.67;;;17.38;;
24663;SDS011;12791;50.992;13.788;2024-01-30T10:15:39;29.50;;;18.27;;
24663;SDS011;12791;50.992;13.788;2024-01-30T10:18:05;25.65;;;16.48;;
24663;SDS011;12791;50.992;13.788;2024-01-30T10:20:32;22.60;;;16.30;;
24663;SDS011;12791;50.992;13.788;2024-01-30T10:23:00;27.55;;;16.98;;
24663;SDS011;12791;50.992;13.788;2024-01-30T10:25:27;23.48;;;15.73;;
24663;SDS011;12791;50.992;13.788;2024-01-30T10:27:54;23.10;;;15.85;;
24663;SDS011;12791;50.992;13.788;2024-01-30T10:30:20;26.60;;;17.23;;
24663;SDS011;12791;50.992;13.788;2024-01-30T10:32:47;26.75;;;17.48;;
24663;SDS011;12791;50.992;13.788;2024-01-30T10:35:14;23.65;;;17.20;;
24663;SDS011;12791;50.992;13.788;2024-01-30T10:37:41;22.48;;;16.55;;
24663;SDS011;12791;50.992;13.788;2024-01-30T10:40:12;24.65;;;16.08;;
24663;SDS011;12791;50.992;13.788;2024-01-30T10:42:40;25.92;;;17.73;;
24663;SDS011;12791;50.992;13.788;2024-01-30T10:45:09;23.88;;;16.08;;
24663;SDS011;12791;50.992;13.788;2024-01-30T10:47:37;24.63;;;16.83;;
24663;SDS011;12791;50.992;13.788;2024-01-30T10:50:07;25.77;;;16.88;;
24663;SDS011;12791;50.992;13.788;2024-01-30T10:52:35;25.38;;;16.55;;
24663;SDS011;12791;50.992;13.788;2024-01-30T10:55:03;23.08;;;16.25;;
24663;SDS011;12791;50.992;13.788;2024-01-30T10:57:33;23.08;;;16.17;;
24663;SDS011;12791;50.992;13.788;2024-01-30T11:00:01;25.55;;;16.40;;
24663;SDS011;12791;50.992;13.788;2024-01-30T11:02:35;24.33;;;16.45;;
24663;SDS011;12791;50.992;13.788;2024-01-30T11:05:04;26.80;;;17.23;;
24663;SDS011;12791;50.992;13.788;2024-01-30T11:07:31;25.65;;;17.27;;
24663;SDS011;12791;50.992;13.788;2024-01-30T11:10:01;24.90;;;16.60;;
24663;SDS011;12791;50.992;13.788;2024-01-30T11:12:29;24.42;;;16.95;;
24663;SDS011;12791;50.992;13.788;2024-01-30T11:15:03;25.75;;;17.65;;
24663;SDS011;12791;50.992;13.788;2024-01-30T11:17:41;24.23;;;16.52;;
24663;SDS011;12791;50.992;13.788;2024-01-30T11:20:11;26.45;;;17.73;;
24663;SDS011;12791;50.992;13.788;2024-01-30T11:22:41;27.75;;;17.13;;
24663;SDS011;12791;50.992;13.788;2024-01-30T11:25:13;23.77;;;16.95;;
24663;SDS011;12791;50.992;13.788;2024-01-30T11:27:41;24.23;;;16.25;;
24663;SDS011;12791;50.992;13.788;2024-01-30T11:30:09;26.45;;;17.90;;
24663;SDS011;12791;50.992;13.788;2024-01-30T11:32:36;25.00;;;17.10;;
24663;SDS011;12791;50.992;13.788;2024-01-30T11:35:03;24.48;;;17.42;;
24663;SDS011;12791;50.992;13.788;2024-01-30T11:37:31;26.25;;;17.55;;
24663;SDS011;12791;50.992;13.788;2024-01-30T11:40:02;26.20;;;17.65;;
24663;SDS011;12791;50.992;13.788;2024-01-30T11:42:30;26.85;;;17.70;;
24663;SDS011;12791;50.992;13.788;2024-01-30T11:44:59;27.55;;;18.15;;
24663;SDS011;12791;50.992;13.788;2024-01-30T11:47:28;25.35;;;17.85;;
24663;SDS011;12791;50.992;13.788;2024-01-30T11:49:54;26.83;;;18.13;;
24663;SDS011;12791;50.992;13.788;2024-01-30T11:52:21;27.70;;;19.67;;
24663;SDS011;12791;50.992;13.788;2024-01-30T11:54:48;28.30;;;17.98;;
24663;SDS011;12791;50.992;13.788;2024-01-30T11:57:15;27.00;;;18.10;;
24663;SDS011;12791;50.992;13.788;2024-01-30T11:59:41;26.60;;;18.77;;
24663;SDS011;12791;50.992;13.788;2024-01-30T12:02:08;28.70;;;18.83;;
24663;SDS011;12791;50.992;13.788;2024-01-30T12:04:36;28.27;;;18.65;;
24663;SDS011;12791;50.992;13.788;2024-01-30T12:07:03;31.23;;;18.90;;
24663;SDS011;12791;50.992;13.788;2024-01-30T12:09:29;27.95;;;17.77;;
24663;SDS011;12791;50.992;13.788;2024-01-30T12:11:56;31.98;;;19.30;;
24663;SDS011;12791;50.992;13.788;2024-01-30T12:14:22;26.55;;;18.30;;
24663;SDS011;12791;50.992;13.788;2024-01-30T12:16:50;26.85;;;17.42;;
24663;SDS011;12791;50.992;13.788;2024-01-30T12:19:23;30.90;;;17.58;;
24663;SDS011;12791;50.992;13.788;2024-01-30T12:24:24;26.55;;;17.98;;
24663;SDS011;12791;50.992;13.788;2024-01-30T12:26:51;32.40;;;19.20;;
24663;SDS011;12791;50.992;13.788;2024-01-30T12:29:17;28.70;;;18.65;;
24663;SDS011;12791;50.992;13.788;2024-01-30T12:31:46;33.00;;;18.50;;
24663;SDS011;12791;50.992;13.788;2024-01-30T12:34:13;28.27;;;18.00;;
24663;SDS011;12791;50.992;13.788;2024-01-30T12:36:40;28.55;;;18.95;;
24663;SDS011;12791;50.992;13.788;2024-01-30T12:39:10;28.95;;;18.08;;
24663;SDS011;12791;50.992;13.788;2024-01-30T12:41:37;24.95;;;17.00;;
24663;SDS011;12791;50.992;13.788;2024-01-30T12:44:04;30.85;;;19.10;;
24663;SDS011;12791;50.992;13.788;2024-01-30T12:46:30;25.90;;;18.40;;
24663;SDS011;12791;50.992;13.788;2024-01-30T12:48:57;24.65;;;17.40;;
24663;SDS011;12791;50.992;13.788;2024-01-30T12:51:24;27.52;;;17.52;;
24663;SDS011;12791;50.992;13.788;2024-01-30T12:53:50;26.67;;;18.33;;
24663;SDS011;12791;50.992;13.788;2024-01-30T12:56:18;34.88;;;18.95;;
24663;SDS011;12791;50.992;13.788;2024-01-30T12:58:45;27.33;;;19.02;;
24663;SDS011;12791;50.992;13.788;2024-01-30T13:01:11;30.00;;;19.30;;
24663;SDS011;12791;50.992;13.788;2024-01-30T13:03:38;30.55;;;19.65;;
24663;SDS011;12791;50.992;13.788;2024-01-30T13:06:05;29.02;;;20.02;;
24663;SDS011;12791;50.992;13.788;2024-01-30T13:08:31;34.40;;;22.08;;
24663;SDS011;12791;50.992;13.788;2024-01-30T13:10:58;30.15;;;20.52;;
24663;SDS011;12791;50.992;13.788;2024-01-30T13:13:26;32.45;;;20.83;;
24663;SDS011;12791;50.992;13.788;2024-01-30T13:15:52;31.40;;;20.33;;
24663;SDS011;12791;50.992;13.788;2024-01-30T13:18:20;28.45;;;19.67;;
24663;SDS011;12791;50.992;13.788;2024-01-30T13:20:46;31.38;;;20.25;;
24663;SDS011;12791;50.992;13.788;2024-01-30T13:23:13;29.05;;;19.75;;
24663;SDS011;12791;50.992;13.788;2024-01-30T13:25:39;32.63;;;20.83;;
24663;SDS011;12791;50.992;13.788;2024-01-30T13:28:06;30.50;;;20.10;;
24663;SDS011;12791;50.992;13.788;2024-01-30T13:30:34;27.52;;;18.45;;
24663;SDS011;12791;50.992;13.788;2024-01-30T13:33:01;32.13;;;20.23;;
24663;SDS011;12791;50.992;13.788;2024-01-30T13:35:28;32.08;;;21.05;;
24663;SDS011;12791;50.992;13.788;2024-01-30T13:37:54;30.95;;;21.40;;
24663;SDS011;12791;50.992;13.788;2024-01-30T13:40:21;29.80;;;19.80;;
24663;SDS011;12791;50.992;13.788;2024-01-30T13:42:48;31.65;;;21.55;;
24663;SDS011;12791;50.992;13.788;2024-01-30T13:45:14;33.13;;;21.58;;
24663;SDS011;12791;50.992;13.788;2024-01-30T13:47:42;29.70;;;19.90;;
24663;SDS011;12791;50.992;13.788;2024-01-30T13:50:09;31.00;;;19.80;;
24663;SDS011;12791;50.992;13.788;2024-01-30T13:52:40;30.45;;;21.05;;
24663;SDS011;12791;50.992;13.788;2024-01-30T13:55:06;32.17;;;21.30;;
24663;SDS011;12791;50.992;13.788;2024-01-30T13:57:35;30.98;;;20.13;;
24663;SDS011;12791;50.992;13.788;2024-01-30T14:00:02;35.58;;;20.17;;
24663;SDS011;12791;50.992;13.788;2024-01-30T14:02:30;29.83;;;20.05;;
24663;SDS011;12791;50.992;13.788;2024-01-30T14:04:58;32.65;;;19.83;;
24663;SDS011;12791;50.992;13.788;2024-01-30T14:07:25;31.15;;;19.85;;
24663;SDS011;12791;50.992;13.788;2024-01-30T14:09:51;33.35;;;20.42;;